Shineimaru No.18 — JD3667 — position and weather

sailwx.info

Track history (hours):
 
Tides and Currents Weather Stations Pressure Air Temp Water Temp Dewpoint Dewpoint Depression Visibility Wind Speed Wind Dir Waves Ship Positions

Shineimaru No.18

Last reported at 2017-Sep-18 10:51 UTC. Time now 2017-Sep-23 23:45 UTC.
Position N 34°36' E 135°05'.

Length 69 m.

Type: Cargo ship. MMSI: 431005328.

Date/timePositionNaut miles runAvg speedWind from/ knotsBaromVisibWave heightAir tempDewpointWater temp
2017-Sep-18 10:51N 34°36' E 135°05'511.3
2017-Sep-18 10:27N 34°37' E 135°10'611.6
2017-Sep-18 09:55N 34°38' E 135°18'511.2
2017-Sep-18 09:29N 34°38' E 135°23'2 0.6
2017-Sep-18 06:51N 34°39' E 135°25'612.2
2017-Sep-18 06:19N 34°34' E 135°20'  
2017-Sep-15 18:10N 34°12' E 135°07'1 9.0
2017-Sep-15 18:00N 34°13' E 135°08'1 1.3
2017-Sep-15 17:29N 34°13' E 135°09'0 0.0
2017-Sep-15 16:56N 34°13' E 135°09'0 0.0
2017-Sep-15 16:29N 34°13' E 135°09'0 0.0
2017-Sep-15 15:53N 34°13' E 135°09'0 0.0
2017-Sep-15 15:29N 34°13' E 135°09'0 0.0
2017-Sep-15 14:11N 34°13' E 135°09'0 0.0
2017-Sep-15 13:53N 34°13' E 135°09'0 0.0
2017-Sep-15 13:05N 34°13' E 135°09'0 0.0
2017-Sep-15 12:59N 34°13' E 135°09'0 0.0
2017-Sep-15 12:29N 34°13' E 135°09'0 0.0
2017-Sep-15 11:59N 34°13' E 135°09'0 0.0
2017-Sep-15 11:29N 34°13' E 135°09'0 0.0
2017-Sep-15 10:40N 34°13' E 135°09'0 0.0
2017-Sep-15 10:07N 34°13' E 135°09'0 0.0
2017-Sep-15 09:58N 34°13' E 135°09'0 0.0
2017-Sep-15 09:13N 34°13' E 135°09'0 0.0
2017-Sep-15 08:58N 34°13' E 135°09'1 2.8
2017-Sep-15 08:30N 34°13' E 135°07'1 1.5
2017-Sep-15 07:59N 34°14' E 135°08'0 0.0
2017-Sep-15 07:29N 34°14' E 135°08'0 0.0
2017-Sep-15 06:59N 34°14' E 135°08'0 0.0
2017-Sep-15 06:30N 34°14' E 135°08'0 0.0
2017-Sep-15 06:00N 34°14' E 135°08'0 0.0
2017-Sep-15 05:30N 34°14' E 135°08'0 0.0
2017-Sep-15 05:00N 34°14' E 135°08'0 0.0
2017-Sep-15 04:30N 34°14' E 135°08'0 0.0
2017-Sep-15 04:00N 34°14' E 135°08'2 4.1
2017-Sep-15 03:29N 34°13' E 135°05'  
2017-Sep-12 06:06N 34°37' E 135°05'310.5
2017-Sep-12 05:51N 34°37' E 135°09'510.9
2017-Sep-12 05:22N 34°38' E 135°15'10 1.6
2017-Sep-11 23:05N 34°40' E 135°27'3 0.9
2017-Sep-11 19:51N 34°38' E 135°27'3 9.2
2017-Sep-11 19:30N 34°38' E 135°24'611.4
2017-Sep-11 18:59N 34°34' E 135°19'23 9.4
2017-Sep-11 16:33N 34°13' E 135°08'010.3
2017-Sep-11 16:30N 34°13' E 135°09'0 0.5
2017-Sep-11 15:56N 34°13' E 135°09'0 0.0
2017-Sep-11 15:29N 34°13' E 135°09'0 0.0
2017-Sep-11 14:59N 34°13' E 135°09'0 0.0
2017-Sep-11 14:26N 34°13' E 135°09'0 0.0
2017-Sep-11 13:59N 34°13' E 135°09'0 0.0
2017-Sep-11 13:23N 34°13' E 135°09'0 0.0
2017-Sep-11 12:59N 34°13' E 135°09'0 0.0
2017-Sep-11 12:26N 34°13' E 135°09'0 0.0
2017-Sep-11 11:59N 34°13' E 135°09'0 0.0
2017-Sep-11 11:29N 34°13' E 135°09'0 0.0
2017-Sep-11 10:56N 34°13' E 135°09'0 0.0
2017-Sep-11 10:29N 34°13' E 135°09'0 0.0
2017-Sep-11 09:59N 34°13' E 135°09'0 0.0
2017-Sep-11 09:29N 34°13' E 135°09'0 0.0
2017-Sep-11 08:59N 34°13' E 135°09'1 2.7
2017-Sep-11 08:30N 34°13' E 135°07'1 1.5
2017-Sep-11 07:59N 34°14' E 135°08'0 0.0
2017-Sep-11 07:29N 34°14' E 135°08'0 0.0
2017-Sep-11 06:59N 34°14' E 135°08'0 0.0
2017-Sep-11 06:28N 34°14' E 135°08'0 0.0
2017-Sep-11 05:58N 34°14' E 135°08'0 0.0
2017-Sep-11 05:28N 34°14' E 135°08'1 2.2
2017-Sep-11 05:00N 34°14' E 135°07'  
Track history (hours):
 
Tides and Currents Weather Stations Pressure Air Temp Water Temp Dewpoint Dewpoint Depression Visibility Wind Speed Wind Dir Waves Ship Positions

Shineimaru No.18

Last reported at 2017-Sep-18 10:51 UTC. Time now 2017-Sep-23 23:45 UTC.
Position N 34°36' E 135°05'.

Length 69 m.

Type: Cargo ship. MMSI: 431005328.

Date/timePositionNaut miles runAvg speedWind from/ knotsBaromVisibWave heightAir tempDewpointWater temp
2017-Sep-18 10:51N 34°36' E 135°05'511.3
2017-Sep-18 10:27N 34°37' E 135°10'611.6
2017-Sep-18 09:55N 34°38' E 135°18'511.2
2017-Sep-18 09:29N 34°38' E 135°23'2 0.6
2017-Sep-18 06:51N 34°39' E 135°25'612.2
2017-Sep-18 06:19N 34°34' E 135°20'  
2017-Sep-15 18:10N 34°12' E 135°07'1 9.0
2017-Sep-15 18:00N 34°13' E 135°08'1 1.3
2017-Sep-15 17:29N 34°13' E 135°09'0 0.0
2017-Sep-15 16:56N 34°13' E 135°09'0 0.0
2017-Sep-15 16:29N 34°13' E 135°09'0 0.0
2017-Sep-15 15:53N 34°13' E 135°09'0 0.0
2017-Sep-15 15:29N 34°13' E 135°09'0 0.0
2017-Sep-15 14:11N 34°13' E 135°09'0 0.0
2017-Sep-15 13:53N 34°13' E 135°09'0 0.0
2017-Sep-15 13:05N 34°13' E 135°09'0 0.0
2017-Sep-15 12:59N 34°13' E 135°09'0 0.0
2017-Sep-15 12:29N 34°13' E 135°09'0 0.0
2017-Sep-15 11:59N 34°13' E 135°09'0 0.0
2017-Sep-15 11:29N 34°13' E 135°09'0 0.0
2017-Sep-15 10:40N 34°13' E 135°09'0 0.0
2017-Sep-15 10:07N 34°13' E 135°09'0 0.0
2017-Sep-15 09:58N 34°13' E 135°09'0 0.0
2017-Sep-15 09:13N 34°13' E 135°09'0 0.0
2017-Sep-15 08:58N 34°13' E 135°09'1 2.8
2017-Sep-15 08:30N 34°13' E 135°07'1 1.5
2017-Sep-15 07:59N 34°14' E 135°08'0 0.0
2017-Sep-15 07:29N 34°14' E 135°08'0 0.0
2017-Sep-15 06:59N 34°14' E 135°08'0 0.0
2017-Sep-15 06:30N 34°14' E 135°08'0 0.0
2017-Sep-15 06:00N 34°14' E 135°08'0 0.0
2017-Sep-15 05:30N 34°14' E 135°08'0 0.0
2017-Sep-15 05:00N 34°14' E 135°08'0 0.0
2017-Sep-15 04:30N 34°14' E 135°08'0 0.0
2017-Sep-15 04:00N 34°14' E 135°08'2 4.1
2017-Sep-15 03:29N 34°13' E 135°05'  
2017-Sep-12 06:06N 34°37' E 135°05'310.5
2017-Sep-12 05:51N 34°37' E 135°09'510.9
2017-Sep-12 05:22N 34°38' E 135°15'10 1.6
2017-Sep-11 23:05N 34°40' E 135°27'3 0.9
2017-Sep-11 19:51N 34°38' E 135°27'3 9.2
2017-Sep-11 19:30N 34°38' E 135°24'611.4
2017-Sep-11 18:59N 34°34' E 135°19'23 9.4
2017-Sep-11 16:33N 34°13' E 135°08'010.3
2017-Sep-11 16:30N 34°13' E 135°09'0 0.5
2017-Sep-11 15:56N 34°13' E 135°09'0 0.0
2017-Sep-11 15:29N 34°13' E 135°09'0 0.0
2017-Sep-11 14:59N 34°13' E 135°09'0 0.0
2017-Sep-11 14:26N 34°13' E 135°09'0 0.0
2017-Sep-11 13:59N 34°13' E 135°09'0 0.0
2017-Sep-11 13:23N 34°13' E 135°09'0 0.0
2017-Sep-11 12:59N 34°13' E 135°09'0 0.0
2017-Sep-11 12:26N 34°13' E 135°09'0 0.0
2017-Sep-11 11:59N 34°13' E 135°09'0 0.0
2017-Sep-11 11:29N 34°13' E 135°09'0 0.0
2017-Sep-11 10:56N 34°13' E 135°09'0 0.0
2017-Sep-11 10:29N 34°13' E 135°09'0 0.0
2017-Sep-11 09:59N 34°13' E 135°09'0 0.0
2017-Sep-11 09:29N 34°13' E 135°09'0 0.0
2017-Sep-11 08:59N 34°13' E 135°09'1 2.7
2017-Sep-11 08:30N 34°13' E 135°07'1 1.5
2017-Sep-11 07:59N 34°14' E 135°08'0 0.0
2017-Sep-11 07:29N 34°14' E 135°08'0 0.0
2017-Sep-11 06:59N 34°14' E 135°08'0 0.0
2017-Sep-11 06:28N 34°14' E 135°08'0 0.0
2017-Sep-11 05:58N 34°14' E 135°08'0 0.0
2017-Sep-11 05:28N 34°14' E 135°08'1 2.2
2017-Sep-11 05:00N 34°14' E 135°07'  

Dump ship's entire track history